Time;durP1;ratioP1;P1;durP2;ratioP2;P2;SDS_P1;SDS_P2;PMS_P1;PMS_P2;Temp;Humidity;BMP_temperature;BMP_pressure;BME280_temperature;BME280_humidity;BME280_pressure;Samples;Min_cycle;Max_cycle;Signal;HPM_P1;HPM_P2
2022/05/23 00:00:18;;;;;;;3.45;1.40;;;17.20;96.10;;;;;;6944223;28;20576;-78
2022/05/23 00:03:42;;;;;;;6.72;1.75;;;17.20;96.00;;;;;;6943100;28;20132;-78
2022/05/23 00:07:10;;;;;;;2.78;1.40;;;17.10;96.10;;;;;;6943547;28;20061;-78
2022/05/23 00:10:32;;;;;;;5.03;1.55;;;16.90;96.30;;;;;;6943326;28;20057;-77
2022/05/23 00:13:54;;;;;;;4.85;1.60;;;16.80;96.40;;;;;;6943781;28;20106;-78
2022/05/23 00:17:17;;;;;;;4.63;1.42;;;16.70;97.00;;;;;;6943197;28;20442;-78
2022/05/23 00:20:41;;;;;;;4.65;1.45;;;16.80;97.00;;;;;;6943520;28;20053;-77
2022/05/23 00:24:03;;;;;;;3.95;1.40;;;16.80;96.80;;;;;;6942363;28;20064;-79
2022/05/23 00:27:26;;;;;;;3.50;1.35;;;16.80;96.60;;;;;;6941097;28;20048;-78
2022/05/23 00:30:48;;;;;;;2.92;1.35;;;16.80;96.10;;;;;;6942369;28;20064;-78
2022/05/23 00:37:56;;;;;;;3.72;1.35;;;16.20;97.80;;;;;;6942987;28;20124;-78
2022/05/23 00:45:15;;;;;;;4.05;1.48;;;16.20;97.40;;;;;;6942506;28;20042;-77
2022/05/23 00:48:37;;;;;;;4.45;1.70;;;16.10;97.60;;;;;;6943326;28;20556;-77
2022/05/23 00:52:04;;;;;;;4.32;1.38;;;15.90;98.00;;;;;;6941688;28;20046;-78
2022/05/23 00:55:33;;;;;;;4.38;2.13;;;15.90;98.00;;;;;;6941306;28;20049;-77
2022/05/23 00:59:00;;;;;;;4.95;1.73;;;15.50;99.30;;;;;;6943190;28;20049;-78
2022/05/23 01:02:22;;;;;;;5.15;2.10;;;15.40;99.40;;;;;;6941381;28;20053;-78
2022/05/23 01:05:46;;;;;;;4.90;2.17;;;15.50;99.90;;;;;;6942189;28;20068;-78
2022/05/23 01:09:08;;;;;;;4.10;1.90;;;15.60;99.90;;;;;;6942526;28;20052;-78
2022/05/23 01:12:32;;;;;;;6.97;2.00;;;15.60;99.30;;;;;;6942853;28;20057;-78
2022/05/23 01:15:54;;;;;;;3.63;2.00;;;15.70;99.10;;;;;;6941528;28;20053;-78
2022/05/23 01:19:16;;;;;;;4.40;1.90;;;15.80;99.00;;;;;;6941986;28;20042;-78
2022/05/23 01:22:47;;;;;;;5.20;1.83;;;15.80;98.90;;;;;;6942250;28;20049;-78
2022/05/23 01:26:11;;;;;;;4.43;1.75;;;15.70;99.00;;;;;;6941621;28;20049;-78
2022/05/23 01:29:33;;;;;;;3.58;1.50;;;15.80;99.00;;;;;;6942668;28;20053;-78
2022/05/23 01:32:55;;;;;;;4.20;1.55;;;15.90;98.80;;;;;;6942016;28;20049;-78
2022/05/23 01:36:17;;;;;;;3.87;1.50;;;16.00;98.60;;;;;;6939349;28;20050;-80
2022/05/23 01:39:39;;;;;;;4.18;1.92;;;16.00;98.60;;;;;;6942230;28;20472;-78
2022/05/23 01:43:03;;;;;;;3.63;1.40;;;16.00;98.20;;;;;;6941959;28;20045;-78
2022/05/23 01:46:26;;;;;;;2.75;1.42;;;16.00;98.20;;;;;;6938310;28;20819;-78
2022/05/23 01:49:48;;;;;;;4.18;1.70;;;16.00;98.20;;;;;;6942751;28;20530;-79
2022/05/23 01:53:10;;;;;;;3.70;1.50;;;16.00;98.50;;;;;;6940914;28;20076;-78
2022/05/23 01:56:33;;;;;;;7.53;2.00;;;15.80;98.70;;;;;;6939079;28;20050;-79
2022/05/23 02:03:35;;;;;;;3.92;1.52;;;15.40;99.70;;;;;;6940783;28;20058;-78
2022/05/23 02:06:57;;;;;;;3.90;1.67;;;15.40;99.70;;;;;;6943841;28;20056;-79
2022/05/23 02:10:20;;;;;;;4.80;1.80;;;15.40;99.60;;;;;;6946719;28;20049;-78
2022/05/23 02:13:45;;;;;;;4.00;1.85;;;15.40;99.80;;;;;;6947088;28;20053;-78
2022/05/23 02:17:11;;;;;;;3.88;1.63;;;15.50;99.70;;;;;;6946378;28;20120;-79
2022/05/23 02:20:33;;;;;;;3.78;1.42;;;15.60;99.40;;;;;;6946895;28;20053;-79
2022/05/23 02:23:55;;;;;;;4.00;1.57;;;15.50;99.40;;;;;;6945065;28;20057;-78
2022/05/23 02:27:17;;;;;;;6.43;2.30;;;15.60;99.30;;;;;;6946241;28;20049;-79
2022/05/23 02:30:40;;;;;;;5.33;1.67;;;15.60;99.40;;;;;;6946885;28;20049;-78
2022/05/23 02:34:04;;;;;;;3.45;1.58;;;15.60;99.20;;;;;;6945453;28;20045;-79
2022/05/23 02:37:27;;;;;;;4.43;1.77;;;15.70;99.20;;;;;;6945917;28;20061;-78
2022/05/23 02:40:49;;;;;;;3.65;2.10;;;15.60;99.50;;;;;;6946385;28;20159;-79
2022/05/23 02:44:11;;;;;;;3.37;1.73;;;15.60;99.70;;;;;;6945805;28;20076;-79
2022/05/23 02:47:33;;;;;;;5.00;1.70;;;15.60;99.80;;;;;;6945502;28;20076;-79
2022/05/23 02:50:57;;;;;;;5.00;2.00;;;15.70;99.60;;;;;;6946220;28;20411;-79
2022/05/23 02:54:19;;;;;;;5.03;1.98;;;15.70;99.40;;;;;;6945673;28;20045;-79
2022/05/23 02:57:42;;;;;;;2.97;1.70;;;15.40;99.90;;;;;;6945582;28;20049;-80
2022/05/23 03:01:05;;;;;;;5.25;1.75;;;15.30;99.90;;;;;;6943562;28;20049;-80
2022/05/23 03:04:26;;;;;;;;;;;15.40;99.90;;;;;;6946408;28;20045;-80
2022/05/23 03:07:50;;;;;;;3.20;1.80;;;15.10;99.90;;;;;;6943751;28;20004;-79
2022/05/23 03:11:12;;;;;;;4.47;1.80;;;15.00;99.90;;;;;;6945768;28;20053;-79
2022/05/23 03:14:34;;;;;;;3.20;1.70;;;15.10;99.90;;;;;;6945076;28;20046;-80
2022/05/23 03:17:57;;;;;;;4.13;2.00;;;15.10;99.90;;;;;;6945201;28;20041;-79
2022/05/23 03:28:37;;;;;;;4.82;2.05;;;15.20;99.90;;;;;;6943815;28;20133;-79
2022/05/23 03:31:59;;;;;;;8.07;2.40;;;15.20;99.90;;;;;;6944424;28;20045;-79
2022/05/23 03:35:21;;;;;;;6.47;2.10;;;15.10;99.90;;;;;;6945128;28;20049;-79
2022/05/23 03:38:44;;;;;;;4.45;2.20;;;15.20;99.90;;;;;;6944818;28;20041;-79
2022/05/23 03:42:08;;;;;;;3.67;2.08;;;14.90;99.90;;;;;;6941738;28;20050;-81
2022/05/23 03:45:31;;;;;;;4.32;2.10;;;14.80;99.90;;;;;;6944437;28;20053;-78
2022/05/23 03:48:53;;;;;;;;;;;14.70;99.90;;;;;;6943979;28;20053;-77
2022/05/23 03:52:15;;;;;;;5.45;2.70;;;14.70;99.90;;;;;;6944713;28;19931;-78
2022/05/23 03:55:37;;;;;;;4.53;2.20;;;14.80;99.90;;;;;;6943852;28;20049;-78
2022/05/23 03:59:01;;;;;;;7.17;2.50;;;14.70;99.90;;;;;;6934030;28;20484;-78
2022/05/23 04:02:23;;;;;;;4.88;2.10;;;14.70;99.90;;;;;;6944363;28;20679;-78
2022/05/23 04:05:47;;;;;;;4.65;2.20;;;14.60;99.90;;;;;;6943383;28;20147;-78
2022/05/23 04:09:10;;;;;;;4.75;2.33;;;14.40;99.90;;;;;;6940993;28;20057;-81
2022/05/23 04:12:32;;;;;;;4.70;2.28;;;14.40;99.90;;;;;;6926483;28;20060;-78
2022/05/23 04:15:56;;;;;;;4.53;2.17;;;14.60;99.90;;;;;;6943281;28;20068;-79
2022/05/23 04:19:19;;;;;;;4.10;2.00;;;14.60;99.90;;;;;;6942719;28;20045;-78
2022/05/23 04:22:41;;;;;;;3.92;2.08;;;14.60;99.90;;;;;;6940836;28;20045;-78
2022/05/23 04:26:08;;;;;;;5.07;1.90;;;14.80;99.90;;;;;;6942926;28;20046;-78
2022/05/23 04:29:31;;;;;;;4.18;2.15;;;15.10;99.90;;;;;;6942968;28;20122;-78
2022/05/23 04:36:34;;;;;;;6.63;2.40;;;15.20;99.90;;;;;;6943454;28;20301;-77
2022/05/23 04:39:56;;;;;;;6.23;2.20;;;15.00;99.90;;;;;;6942189;28;20049;-78
2022/05/23 04:43:18;;;;;;;4.33;2.30;;;14.70;99.90;;;;;;6943492;28;20053;-77
2022/05/23 04:49:41;;;;;;;4.45;2.30;;;14.50;99.90;;;;;;6943046;28;20144;-78
2022/05/23 04:50:24;;;;;;;4.65;2.40;;;14.70;99.90;;;;;;6943144;28;20050;-78
2022/05/23 04:53:49;;;;;;;5.88;2.55;;;14.90;99.90;;;;;;6943033;28;20053;-79
2022/05/23 04:57:12;;;;;;;7.15;2.53;;;15.10;99.90;;;;;;6943188;28;20505;-77
2022/05/23 05:00:35;;;;;;;8.55;2.42;;;15.20;99.90;;;;;;6943154;28;20049;-78
2022/05/23 05:03:57;;;;;;;;;;;15.30;99.90;;;;;;6943263;28;20053;-77
2022/05/23 05:07:21;;;;;;;5.57;2.72;;;15.30;99.90;;;;;;6942845;28;19928;-78
2022/05/23 05:10:44;;;;;;;6.38;2.80;;;15.40;99.90;;;;;;6942642;28;20045;-78
2022/05/23 05:14:07;;;;;;;6.40;2.90;;;15.30;99.90;;;;;;6941996;28;20136;-78
2022/05/23 05:17:29;;;;;;;6.53;2.47;;;15.30;99.90;;;;;;6942664;28;20060;-77
2022/05/23 05:20:51;;;;;;;6.60;3.00;;;15.20;99.90;;;;;;6942634;28;20050;-77
2022/05/23 05:24:14;;;;;;;5.50;2.80;;;15.30;99.90;;;;;;6942271;28;20057;-78
2022/05/23 05:27:37;;;;;;;5.60;2.63;;;15.30;99.90;;;;;;6942186;28;20053;-78
2022/05/23 05:31:06;;;;;;;5.38;2.45;;;15.40;99.90;;;;;;6942330;28;20050;-78
2022/05/23 05:34:34;;;;;;;4.97;3.00;;;15.50;99.90;;;;;;6942480;28;20061;-77
2022/05/23 05:38:02;;;;;;;5.55;2.83;;;15.40;99.90;;;;;;6942195;28;20053;-78
2022/05/23 05:41:30;;;;;;;6.55;2.75;;;15.50;99.90;;;;;;6947045;28;20045;-78
2022/05/23 05:44:59;;;;;;;5.93;2.72;;;15.80;99.90;;;;;;6948025;28;20061;-78
2022/05/23 05:48:21;;;;;;;5.85;2.90;;;15.80;99.90;;;;;;6947693;28;20203;-78
2022/05/23 05:51:46;;;;;;;10.35;2.78;;;15.90;99.90;;;;;;6947742;28;20046;-77
2022/05/23 05:55:09;;;;;;;8.63;2.88;;;16.10;99.90;;;;;;6947892;28;20056;-77
2022/05/23 05:58:34;;;;;;;4.75;2.45;;;16.20;99.90;;;;;;6947534;28;20081;-77
2022/05/23 06:01:56;;;;;;;7.38;2.72;;;16.10;99.90;;;;;;6947470;28;20045;-78
2022/05/23 06:05:19;;;;;;;8.77;2.90;;;16.20;99.90;;;;;;6946335;28;20053;-79
2022/05/23 06:12:20;;;;;;;4.72;2.70;;;16.30;99.90;;;;;;6947194;28;20053;-78
2022/05/23 06:15:44;;;;;;;6.53;3.07;;;16.50;99.90;;;;;;6947274;28;20415;-76
2022/05/23 06:19:07;;;;;;;5.40;2.40;;;16.70;99.90;;;;;;6947487;28;20411;-78
2022/05/23 06:22:29;;;;;;;4.20;2.55;;;16.80;99.90;;;;;;6947135;28;20053;-78
2022/05/23 06:25:51;;;;;;;5.28;2.60;;;17.00;99.90;;;;;;6946632;28;20053;-78
2022/05/23 06:29:13;;;;;;;5.40;2.77;;;17.00;99.90;;;;;;6946569;28;20049;-79
2022/05/23 06:32:37;;;;;;;5.43;2.97;;;17.00;99.90;;;;;;6946699;28;20049;-78
2022/05/23 06:35:59;;;;;;;6.63;3.13;;;17.20;99.90;;;;;;6946503;28;20057;-78
2022/05/23 06:39:21;;;;;;;5.40;3.27;;;17.30;99.90;;;;;;6946336;28;20487;-78
2022/05/23 06:42:43;;;;;;;6.13;2.57;;;17.50;99.90;;;;;;6946634;28;20635;-78
2022/05/23 06:46:06;;;;;;;6.22;3.08;;;17.60;99.90;;;;;;6946201;28;20414;-78
2022/05/23 06:49:30;;;;;;;5.35;2.65;;;17.60;99.90;;;;;;6946208;28;20194;-78
2022/05/23 06:52:53;;;;;;;6.53;2.92;;;17.40;99.90;;;;;;6945659;28;20057;-78
2022/05/23 06:56:15;;;;;;;5.85;2.35;;;17.70;99.90;;;;;;6946194;28;20054;-76
2022/05/23 06:59:37;;;;;;;5.05;2.33;;;17.90;99.90;;;;;;6946259;28;20049;-78
2022/05/23 07:02:59;;;;;;;5.38;2.63;;;18.00;99.90;;;;;;6945930;28;20050;-77
2022/05/23 07:13:39;;;;;;;6.22;2.75;;;18.40;99.90;;;;;;6924538;28;20057;-78
2022/05/23 07:17:02;;;;;;;5.93;2.30;;;18.50;99.90;;;;;;6945440;28;20052;-77
2022/05/23 07:20:24;;;;;;;4.40;2.20;;;18.70;99.90;;;;;;6946423;28;20053;-78
2022/05/23 07:23:47;;;;;;;5.88;2.50;;;18.80;99.90;;;;;;6944910;28;20427;-77
2022/05/23 07:27:12;;;;;;;5.60;2.50;;;18.90;99.90;;;;;;6945107;28;20057;-77
2022/05/23 07:30:34;;;;;;;5.80;2.40;;;18.80;99.90;;;;;;6945082;28;20046;-77
2022/05/23 07:33:56;;;;;;;7.00;2.67;;;18.70;99.90;;;;;;6945312;28;20048;-77
2022/05/23 07:37:18;;;;;;;6.25;2.67;;;18.70;99.90;;;;;;6945396;28;20557;-78
2022/05/23 07:40:42;;;;;;;4.28;2.58;;;18.70;99.90;;;;;;6945231;28;20049;-77
2022/05/23 07:44:04;;;;;;;5.20;2.60;;;18.80;99.90;;;;;;6944787;28;20045;-77
2022/05/23 07:47:27;;;;;;;8.02;2.95;;;19.00;99.90;;;;;;6944755;28;20049;-77
2022/05/23 07:50:50;;;;;;;5.50;2.95;;;19.10;99.90;;;;;;6944648;28;20518;-77
2022/05/23 08:01:33;;;;;;;5.97;3.15;;;19.00;99.90;;;;;;6944780;28;20045;-77
2022/05/23 08:04:55;;;;;;;5.80;2.97;;;19.10;99.90;;;;;;6943388;28;20053;-77
2022/05/23 08:08:17;;;;;;;7.63;2.92;;;19.10;99.90;;;;;;6944245;28;20048;-77
2022/05/23 08:11:42;;;;;;;5.80;2.70;;;19.10;99.90;;;;;;6944175;28;20056;-77
2022/05/23 08:15:08;;;;;;;7.28;2.97;;;19.20;99.90;;;;;;6944519;28;20049;-78
2022/05/23 08:18:31;;;;;;;5.10;2.70;;;19.20;99.90;;;;;;6944441;28;20053;-77
2022/05/23 08:21:56;;;;;;;5.25;2.90;;;19.30;99.90;;;;;;6944162;28;20058;-78
2022/05/23 08:25:19;;;;;;;5.15;2.20;;;19.40;99.90;;;;;;6944088;28;20061;-77
2022/05/23 08:28:42;;;;;;;4.88;2.72;;;19.50;99.90;;;;;;6944293;28;20054;-78
2022/05/23 08:32:07;;;;;;;;;;;19.60;99.90;;;;;;6945083;28;20049;-77
2022/05/23 08:35:29;;;;;;;4.55;2.60;;;19.60;99.90;;;;;;6943985;28;19921;-77
2022/05/23 08:38:52;;;;;;;4.60;2.67;;;19.60;99.90;;;;;;6944047;28;20056;-78
2022/05/23 08:42:29;;;;;;;6.55;3.05;;;19.50;99.90;;;;;;6942609;28;20049;-78
2022/05/23 08:45:57;;;;;;;5.47;2.70;;;19.70;99.90;;;;;;6943730;28;20137;-77
2022/05/23 08:49:45;;;;;;;7.18;3.00;;;19.80;99.90;;;;;;6943484;28;20057;-78
2022/05/23 08:53:13;;;;;;;5.78;2.72;;;19.90;99.90;;;;;;6944111;28;20478;-78
2022/05/23 08:56:39;;;;;;;5.38;2.88;;;20.10;99.90;;;;;;6943580;28;20056;-78
2022/05/23 09:00:08;;;;;;;4.78;2.72;;;20.00;99.90;;;;;;6943393;28;20507;-78
2022/05/23 09:03:35;;;;;;;5.38;2.88;;;20.20;99.90;;;;;;6943384;28;20061;-77
2022/05/23 09:07:01;;;;;;;5.18;2.70;;;20.50;99.90;;;;;;6943334;28;20049;-77
2022/05/23 09:10:31;;;;;;;7.70;2.80;;;20.80;99.90;;;;;;6943157;28;20056;-77
2022/05/23 09:13:53;;;;;;;6.75;3.35;;;20.90;99.90;;;;;;6943078;28;20053;-76
2022/05/23 09:17:24;;;;;;;5.45;2.75;;;21.00;99.90;;;;;;6943427;28;20055;-78
2022/05/23 09:20:51;;;;;;;5.82;2.70;;;21.00;99.90;;;;;;6943049;28;20494;-76
2022/05/23 09:24:16;;;;;;;6.30;2.85;;;21.00;99.90;;;;;;6942588;28;20060;-77
2022/05/23 09:27:42;;;;;;;6.60;2.60;;;21.00;98.60;;;;;;6942587;28;20064;-77
2022/05/23 09:31:12;;;;;;;6.00;2.50;;;21.00;98.20;;;;;;6942324;28;20515;-77
2022/05/23 09:34:37;;;;;;;8.10;2.95;;;21.10;98.60;;;;;;6942848;28;20049;-76
2022/05/23 09:38:17;;;;;;;5.93;2.53;;;21.20;98.70;;;;;;6942487;28;20060;-78
2022/05/23 09:49:13;;;;;;;5.32;2.58;;;21.60;97.50;;;;;;6942594;28;20057;-77
2022/05/23 09:52:42;;;;;;;7.35;2.92;;;21.60;97.40;;;;;;6942683;28;20046;-76
2022/05/23 09:56:33;;;;;;;6.53;2.50;;;21.70;97.30;;;;;;6958332;28;20415;-77
2022/05/23 10:00:00;;;;;;;6.90;2.70;;;21.60;97.10;;;;;;6942207;28;20056;-77
2022/05/23 10:03:25;;;;;;;7.60;2.58;;;21.70;97.30;;;;;;6942127;28;20050;-79
2022/05/23 10:06:50;;;;;;;6.97;2.70;;;21.60;96.70;;;;;;6941865;28;20427;-79
2022/05/23 10:10:22;;;;;;;6.97;2.90;;;21.60;96.80;;;;;;6940958;28;20188;-77
2022/05/23 10:13:50;;;;;;;7.07;2.83;;;21.50;96.70;;;;;;6942764;28;20053;-79
2022/05/23 10:17:26;;;;;;;5.68;2.60;;;21.50;97.10;;;;;;6942148;28;20049;-78
2022/05/23 10:20:50;;;;;;;4.72;2.63;;;21.50;97.10;;;;;;6942322;28;20522;-76
2022/05/23 10:24:28;;;;;;;4.90;2.65;;;21.50;97.40;;;;;;6942090;28;20091;-79
2022/05/23 10:27:54;;;;;;;5.65;2.80;;;21.50;97.30;;;;;;6944289;28;20055;-76
2022/05/23 10:31:22;;;;;;;4.00;2.53;;;21.50;97.40;;;;;;6947130;28;20057;-77
2022/05/23 10:34:50;;;;;;;5.38;3.10;;;21.50;97.90;;;;;;6947395;28;20506;-77
2022/05/23 10:42:11;;;;;;;7.03;3.30;;;21.50;99.30;;;;;;6947048;28;20053;-79
2022/05/23 10:45:41;;;;;;;6.10;2.65;;;21.40;99.90;;;;;;6949127;28;20053;-76
2022/05/23 10:49:16;;;;;;;6.95;3.03;;;21.20;99.90;;;;;;6951484;28;20479;-78
2022/05/23 10:52:49;;;;;;;8.10;3.30;;;21.20;99.90;;;;;;6948505;28;20056;-78
2022/05/23 10:56:25;;;;;;;8.95;3.30;;;21.20;99.90;;;;;;6947629;28;20411;-77
2022/05/23 10:59:57;;;;;;;7.35;3.45;;;21.20;99.90;;;;;;6946187;28;20053;-77
2022/05/23 11:03:32;;;;;;;6.78;3.38;;;21.10;99.90;;;;;;6946185;28;20050;-77
2022/05/23 11:07:14;;;;;;;8.65;3.50;;;21.00;99.90;;;;;;6946073;28;20046;-76
2022/05/23 11:10:49;;;;;;;10.70;3.90;;;21.00;99.90;;;;;;6945781;28;20054;-78
2022/05/23 11:14:23;;;;;;;6.45;3.70;;;21.00;99.90;;;;;;6946583;28;20057;-77
2022/05/23 11:17:53;;;;;;;7.63;3.97;;;20.90;99.90;;;;;;6945857;28;20064;-77
2022/05/23 11:21:24;;;;;;;7.50;3.22;;;20.80;99.90;;;;;;6945900;28;20075;-77
2022/05/23 11:24:53;;;;;;;8.18;3.40;;;20.70;99.90;;;;;;6945229;28;20057;-77
2022/05/23 11:35:49;;;;;;;11.32;3.45;;;20.00;99.90;;;;;;6945102;28;20068;-76
2022/05/23 11:39:45;;;;;;;10.80;3.65;;;19.70;99.90;;;;;;6943638;28;20512;-77
2022/05/23 11:43:11;;;;;;;8.35;2.88;;;19.50;99.90;;;;;;6945144;28;20068;-78
2022/05/23 11:47:06;;;;;;;10.73;3.83;;;19.30;99.90;;;;;;6944777;28;20052;-78
2022/05/23 11:50:31;;;;;;;9.80;3.70;;;19.10;99.90;;;;;;6944686;28;20053;-77
2022/05/23 11:54:03;;;;;;;10.10;3.53;;;19.10;99.90;;;;;;6944980;28;20050;-78
2022/05/23 11:57:36;;;;;;;8.75;3.40;;;19.10;99.90;;;;;;6944896;28;20076;-77
2022/05/23 12:01:05;;;;;;;9.90;3.55;;;19.10;99.90;;;;;;6944731;28;20064;-77
2022/05/23 12:04:30;;;;;;;7.03;2.90;;;19.20;99.90;;;;;;6944879;28;20048;-77
2022/05/23 12:08:06;;;;;;;8.57;2.67;;;19.10;99.90;;;;;;6944161;28;20047;-79
2022/05/23 12:11:34;;;;;;;11.20;3.00;;;19.10;99.90;;;;;;6944202;28;20069;-77
2022/05/23 12:14:57;;;;;;;7.55;3.22;;;19.10;99.90;;;;;;6944339;28;20400;-78
2022/05/23 12:18:35;;;;;;;9.45;2.63;;;19.00;99.90;;;;;;6944460;28;20053;-77
2022/05/23 12:22:24;;;;;;;7.22;2.30;;;18.90;99.90;;;;;;6943898;28;20483;-78
2022/05/23 12:26:08;;;;;;;8.05;2.67;;;19.00;99.90;;;;;;6944297;28;20058;-77
2022/05/23 12:29:34;;;;;;;9.88;2.80;;;19.20;99.90;;;;;;6944173;28;20518;-78
2022/05/23 12:33:07;;;;;;;6.35;2.42;;;19.20;99.90;;;;;;6943911;28;20446;-78
2022/05/23 12:36:33;;;;;;;8.70;2.30;;;19.40;99.90;;;;;;6944074;28;20049;-77
2022/05/23 12:40:14;;;;;;;8.32;2.90;;;19.60;99.90;;;;;;6943742;28;20049;-76
2022/05/23 12:43:44;;;;;;;;;;;19.70;99.90;;;;;;6943079;28;20053;-78
2022/05/23 12:47:24;;;;;;;8.15;2.60;;;19.90;99.90;;;;;;6943674;28;19921;-78
2022/05/23 12:51:06;;;;;;;7.72;2.20;;;20.00;99.90;;;;;;6942520;28;20057;-78
2022/05/23 12:54:38;;;;;;;6.90;1.70;;;20.20;99.90;;;;;;6943115;28;20457;-78
2022/05/23 13:02:30;;;;;;;8.57;1.85;;;20.50;99.90;;;;;;7050174;27;20388;-77
2022/05/23 13:05:59;;;;;;;8.35;2.50;;;20.70;99.90;;;;;;7022192;28;20532;-76
2022/05/23 13:09:29;;;;;;;6.55;1.90;;;20.80;99.90;;;;;;7021769;28;20051;-76
2022/05/23 13:13:03;;;;;;;6.57;1.70;;;20.80;99.90;;;;;;7021934;28;20052;-77
2022/05/23 13:16:29;;;;;;;6.15;2.00;;;21.10;99.90;;;;;;7021509;28;20052;-76
2022/05/23 13:23:33;;;;;;;6.60;2.03;;;21.60;99.90;;;;;;7021605;28;20502;-76
2022/05/23 13:26:58;;;;;;;5.40;1.63;;;21.90;99.90;;;;;;7022078;28;20410;-77
2022/05/23 13:30:27;;;;;;;4.82;1.77;;;22.00;99.90;;;;;;7021355;28;20070;-78
2022/05/23 13:33:49;;;;;;;6.70;1.90;;;22.20;99.90;;;;;;7021700;28;20041;-77
2022/05/23 13:37:27;;;;;;;7.20;1.83;;;22.40;99.90;;;;;;7021242;28;20406;-78
2022/05/23 13:40:53;;;;;;;7.75;1.83;;;22.60;99.90;;;;;;7021594;28;20060;-77
2022/05/23 13:44:24;;;;;;;5.63;2.05;;;23.00;99.90;;;;;;7021354;28;20055;-78
2022/05/23 13:48:00;;;;;;;7.40;1.65;;;23.30;99.50;;;;;;7021334;28;20044;-78
2022/05/23 13:51:29;;;;;;;8.02;1.90;;;23.70;98.90;;;;;;7020998;28;20059;-75
2022/05/23 13:54:59;;;;;;;6.63;1.80;;;24.20;97.70;;;;;;7020713;28;20044;-77
2022/05/23 13:58:25;;;;;;;5.25;1.95;;;24.40;96.50;;;;;;7020929;28;20059;-78
2022/05/23 14:01:52;;;;;;;5.40;1.75;;;24.40;95.70;;;;;;7021168;28;20116;-78
2022/05/23 14:05:15;;;;;;;7.72;2.15;;;24.40;95.90;;;;;;7021292;28;20048;-76
2022/05/23 14:08:42;;;;;;;8.00;1.85;;;24.80;95.90;;;;;;7020686;28;20135;-77
2022/05/23 14:12:08;;;;;;;6.55;2.13;;;25.30;94.40;;;;;;7010766;28;20135;-77
2022/05/23 14:15:31;;;;;;;6.30;1.90;;;25.50;93.00;;;;;;7001691;28;20481;-77
2022/05/23 14:19:13;;;;;;;6.45;1.75;;;25.60;93.10;;;;;;7001627;28;20048;-78
2022/05/23 14:22:36;;;;;;;8.70;1.60;;;26.00;88.80;;;;;;7001518;28;20044;-76
2022/05/23 14:26:20;;;;;;;6.43;1.85;;;26.10;87.70;;;;;;7017314;28;20173;-76
2022/05/23 14:29:45;;;;;;;4.78;1.50;;;26.50;88.60;;;;;;6995870;28;20509;-78
2022/05/23 14:33:21;;;;;;;6.03;1.50;;;26.70;85.10;;;;;;7000883;28;20056;-77
2022/05/23 14:36:57;;;;;;;5.68;1.73;;;27.30;88.30;;;;;;7001230;28;20048;-76
2022/05/23 14:40:33;;;;;;;4.07;1.40;;;27.80;80.70;;;;;;7003097;28;20103;-77
2022/05/23 14:44:01;;;;;;;5.75;1.80;;;28.40;77.10;;;;;;7001166;28;20044;-77
2022/05/23 14:47:26;;;;;;;5.57;1.88;;;29.10;72.90;;;;;;7000470;28;20052;-77
2022/05/23 14:50:55;;;;;;;4.57;1.83;;;28.80;71.60;;;;;;7000636;28;20093;-76
2022/05/23 15:01:42;;;;;;;7.78;1.73;;;28.30;70.90;;;;;;7002092;28;20139;-76
2022/05/23 15:05:09;;;;;;;4.80;1.42;;;27.80;69.70;;;;;;7001469;28;20056;-76
2022/05/23 15:08:31;;;;;;;7.75;1.70;;;27.00;74.10;;;;;;6999157;28;20049;-77
2022/05/23 15:11:54;;;;;;;;;;;26.80;75.20;;;;;;6999737;28;20051;-79
2022/05/23 15:15:18;;;;;;;7.45;1.60;;;26.20;74.70;;;;;;6992565;28;20326;-81
2022/05/23 15:18:41;;;;;;;5.00;1.80;;;25.90;76.50;;;;;;6996232;28;20044;-78
2022/05/23 15:22:07;;;;;;;6.95;1.70;;;25.60;77.50;;;;;;6994123;28;20087;-79
2022/05/23 15:25:30;;;;;;;7.05;2.05;;;25.30;78.60;;;;;;6993927;28;20131;-79
2022/05/23 15:28:54;;;;;;;9.63;2.42;;;24.90;79.20;;;;;;6996288;28;20048;-81
2022/05/23 15:32:17;;;;;;;5.18;1.90;;;24.70;82.20;;;;;;6994607;28;20078;-81
2022/05/23 15:35:39;;;;;;;9.32;2.28;;;24.50;83.40;;;;;;6992852;28;20049;-81
2022/05/23 15:39:03;;;;;;;9.02;2.28;;;24.40;86.40;;;;;;6994194;28;20127;-80
2022/05/23 15:42:29;;;;;;;8.18;2.75;;;24.00;90.70;;;;;;7008935;28;20052;-82
2022/05/23 15:45:52;;;;;;;8.13;2.50;;;23.60;92.90;;;;;;6998840;28;20079;-80
2022/05/23 15:49:16;;;;;;;9.25;2.75;;;23.30;93.80;;;;;;6998414;28;20048;-80
2022/05/23 15:52:38;;;;;;;9.98;2.90;;;23.00;95.30;;;;;;6998873;28;20049;-82
2022/05/23 15:56:02;;;;;;;9.45;2.50;;;22.80;95.80;;;;;;6998437;28;20375;-80
2022/05/23 15:59:25;;;;;;;8.15;2.67;;;22.60;96.20;;;;;;6997656;28;20410;-81
2022/05/23 16:02:47;;;;;;;10.40;2.35;;;22.60;96.00;;;;;;6997290;28;20052;-81
2022/05/23 16:06:10;;;;;;;7.25;2.17;;;22.30;95.60;;;;;;6998063;28;20048;-82
2022/05/23 16:09:32;;;;;;;8.82;2.28;;;22.10;96.00;;;;;;6997109;28;20767;-81
2022/05/23 16:12:59;;;;;;;;;;;21.90;96.90;;;;;;6997372;28;20059;-81
2022/05/23 16:16:24;;;;;;;8.52;2.38;;;21.60;97.50;;;;;;6999179;28;20493;-82
2022/05/23 16:19:47;;;;;;;9.45;2.40;;;21.50;97.60;;;;;;6998577;28;20494;-82
2022/05/23 16:23:10;;;;;;;;;;;21.30;97.80;;;;;;6997177;28;20513;-80
2022/05/23 16:26:33;;;;;;;6.90;2.30;;;21.50;98.00;;;;;;6998805;28;20354;-81
2022/05/23 16:29:56;;;;;;;6.97;1.92;;;21.50;98.50;;;;;;6996793;28;20055;-79
2022/05/23 16:36:58;;;;;;;8.88;2.10;;;21.20;98.40;;;;;;6994938;28;20456;-79
2022/05/23 16:40:20;;;;;;;6.18;1.90;;;21.30;97.60;;;;;;6995739;28;20072;-76
2022/05/23 16:43:43;;;;;;;6.38;1.70;;;21.20;98.00;;;;;;6982353;28;20402;-80
2022/05/23 16:47:06;;;;;;;7.60;1.90;;;21.20;97.90;;;;;;6996077;28;20071;-80
2022/05/23 16:50:29;;;;;;;7.10;1.90;;;21.20;98.00;;;;;;6996607;28;20044;-80
2022/05/23 16:53:52;;;;;;;7.40;1.75;;;21.10;97.70;;;;;;6997058;28;20127;-80
2022/05/23 16:57:14;;;;;;;7.72;1.65;;;21.00;97.80;;;;;;6994910;28;20090;-79
2022/05/23 17:00:38;;;;;;;8.70;1.73;;;20.90;97.20;;;;;;6996116;28;20045;-79
2022/05/23 17:04:02;;;;;;;5.97;2.20;;;20.80;97.50;;;;;;6994536;28;20463;-78
2022/05/23 17:07:24;;;;;;;7.50;2.35;;;20.80;97.80;;;;;;6995645;28;20052;-77
2022/05/23 17:10:47;;;;;;;6.28;1.85;;;20.80;97.50;;;;;;6997014;28;20041;-78
2022/05/23 17:14:09;;;;;;;5.72;1.80;;;20.90;97.30;;;;;;6996666;28;20482;-78
2022/05/23 17:17:31;;;;;;;6.45;1.67;;;20.70;97.30;;;;;;6995977;28;20045;-78
2022/05/23 17:20:55;;;;;;;6.32;2.05;;;20.80;97.40;;;;;;6995752;28;20047;-77
2022/05/23 17:24:18;;;;;;;7.68;1.80;;;20.80;97.50;;;;;;6994924;28;20055;-80
2022/05/23 17:27:40;;;;;;;7.00;2.03;;;20.80;97.60;;;;;;6996111;28;20047;-80
2022/05/23 17:31:02;;;;;;;7.88;2.22;;;20.90;97.40;;;;;;6995135;28;20486;-78
2022/05/23 17:34:24;;;;;;;7.78;1.95;;;20.90;97.80;;;;;;6995589;28;20052;-78
2022/05/23 17:37:47;;;;;;;6.50;2.28;;;20.90;97.60;;;;;;6990628;28;20055;-80
2022/05/23 17:41:12;;;;;;;9.23;1.88;;;20.90;97.90;;;;;;6987867;28;20143;-80
2022/05/23 17:44:34;;;;;;;10.02;2.53;;;20.80;97.90;;;;;;6993834;28;20055;-80
2022/05/23 17:47:56;;;;;;;8.40;2.10;;;20.80;98.60;;;;;;6999372;28;20036;-80
2022/05/23 17:51:18;;;;;;;6.20;2.13;;;20.80;98.50;;;;;;6999348;28;20059;-77
2022/05/23 17:54:42;;;;;;;7.72;3.45;;;20.80;98.20;;;;;;6997331;28;20051;-79
2022/05/23 17:58:05;;;;;;;11.38;2.50;;;20.70;98.20;;;;;;6995700;28;20041;-79
2022/05/23 18:01:27;;;;;;;7.00;2.42;;;20.70;98.40;;;;;;7000088;28;20063;-79
2022/05/23 18:04:49;;;;;;;8.45;2.95;;;20.80;98.30;;;;;;6999288;28;20052;-80
2022/05/23 18:08:12;;;;;;;5.25;2.45;;;20.70;98.40;;;;;;6999093;28;20056;-78
2022/05/23 18:11:36;;;;;;;8.57;2.60;;;20.70;98.40;;;;;;6999176;28;20055;-79
2022/05/23 18:22:17;;;;;;;5.45;2.17;;;20.80;98.60;;;;;;6999123;28;20048;-79
2022/05/23 18:25:42;;;;;;;8.50;2.20;;;20.70;98.70;;;;;;6997779;28;20044;-78
2022/05/23 18:29:06;;;;;;;7.35;2.20;;;20.70;98.80;;;;;;6993034;28;20113;-80
2022/05/23 18:32:28;;;;;;;5.72;1.90;;;20.70;97.90;;;;;;6997711;28;20045;-80
2022/05/23 18:35:50;;;;;;;5.93;1.98;;;20.70;97.90;;;;;;6994070;28;20060;-79
2022/05/23 18:39:12;;;;;;;6.20;1.80;;;20.70;96.80;;;;;;6993330;28;20574;-79
2022/05/23 18:42:34;;;;;;;5.95;1.92;;;20.60;96.60;;;;;;6993833;28;20099;-80
2022/05/23 18:45:59;;;;;;;6.88;1.65;;;20.70;96.10;;;;;;6996235;28;20048;-79
2022/05/23 18:53:02;;;;;;;5.60;1.92;;;20.60;95.40;;;;;;6995343;28;20044;-79
2022/05/23 18:56:24;;;;;;;8.20;1.90;;;20.60;94.80;;;;;;6994699;28;20051;-78
2022/05/23 18:59:49;;;;;;;9.57;2.00;;;20.60;94.70;;;;;;6995161;28;20063;-79
2022/05/23 19:03:14;;;;;;;10.95;2.05;;;20.60;94.60;;;;;;6995256;28;20056;-79
2022/05/23 19:06:36;;;;;;;6.55;2.20;;;20.60;94.70;;;;;;6994130;28;20056;-77
2022/05/23 19:09:59;;;;;;;8.10;2.10;;;20.60;95.30;;;;;;6996067;28;20517;-77
2022/05/23 19:13:21;;;;;;;5.53;2.08;;;20.50;94.90;;;;;;6995013;28;20059;-77
2022/05/23 19:16:43;;;;;;;6.75;1.98;;;20.50;94.90;;;;;;6994965;28;20416;-78
2022/05/23 19:20:10;;;;;;;4.72;1.70;;;20.50;95.00;;;;;;6995202;28;20383;-78